createdAt,value
2023-03-21T00:00:33.619Z,10.19
2023-03-21T00:03:00.158Z,10.13
2023-03-21T00:05:26.770Z,10.12
2023-03-21T00:07:53.149Z,10.15
2023-03-21T00:10:33.032Z,10.14
2023-03-21T00:13:05.583Z,10.03
2023-03-21T00:15:42.660Z,10.10
2023-03-21T00:18:15.842Z,10.14
2023-03-21T00:20:47.254Z,10.17
2023-03-21T00:23:13.604Z,10.22
2023-03-21T00:25:40.300Z,10.24
2023-03-21T00:28:08.620Z,10.27
2023-03-21T00:30:35.329Z,10.12
2023-03-21T00:33:12.060Z,10.17
2023-03-21T00:36:06.252Z,10.23
2023-03-21T00:38:34.090Z,10.22
2023-03-21T00:41:11.024Z,10.30
2023-03-21T00:43:43.992Z,10.14
2023-03-21T00:46:10.626Z,10.02
2023-03-21T00:48:37.132Z,10.05
2023-03-21T00:51:13.310Z,10.07
2023-03-21T00:53:39.676Z,10.10
2023-03-21T00:56:06.271Z,10.15
2023-03-21T00:58:32.811Z,10.10
2023-03-21T01:00:59.332Z,10.10
2023-03-21T01:03:26.680Z,10.00
2023-03-21T01:06:04.220Z,10.05
2023-03-21T01:08:50.543Z,10.02
2023-03-21T01:11:20.617Z,10.08
2023-03-21T01:14:04.064Z,10.06
2023-03-21T01:16:34.708Z,10.18
2023-03-21T01:19:04.768Z,10.17
2023-03-21T01:21:32.136Z,10.02
2023-03-21T01:23:58.630Z,10.04
2023-03-21T01:26:25.712Z,10.05
2023-03-21T01:28:52.075Z,10.04
2023-03-21T01:31:18.768Z,9.94
2023-03-21T01:33:45.400Z,10.06
2023-03-21T01:36:16.596Z,10.00
2023-03-21T01:38:43.725Z,9.97
2023-03-21T01:41:47.254Z,9.92
2023-03-21T01:44:19.114Z,10.00
2023-03-21T01:47:07.758Z,10.07
2023-03-21T01:49:46.155Z,9.98
2023-03-21T01:52:26.487Z,9.93
2023-03-21T01:54:57.522Z,9.94
2023-03-21T01:57:45.210Z,9.80
2023-03-21T02:00:16.627Z,9.67
2023-03-21T02:02:52.608Z,9.78
2023-03-21T02:05:30.011Z,9.80
2023-03-21T02:07:56.887Z,9.82
2023-03-21T02:10:23.705Z,9.86
2023-03-21T02:12:50.213Z,9.88
2023-03-21T02:15:16.745Z,9.71
2023-03-21T02:18:09.333Z,9.80
2023-03-21T02:20:58.470Z,9.80
2023-03-21T02:23:55.747Z,9.68
2023-03-21T02:26:45.116Z,9.72
2023-03-21T02:29:23.206Z,9.52
2023-03-21T02:32:22.642Z,9.52
2023-03-21T02:35:21.758Z,9.45
2023-03-21T02:38:18.172Z,9.31
2023-03-21T02:41:05.357Z,9.05
2023-03-21T02:43:48.659Z,9.24
2023-03-21T02:46:44.173Z,9.27
2023-03-21T02:49:30.925Z,9.13
2023-03-21T02:52:05.411Z,9.11
2023-03-21T02:54:48.395Z,9.49
2023-03-21T02:57:19.263Z,9.69
2023-03-21T02:59:54.559Z,9.71
2023-03-21T03:02:28.531Z,9.71
2023-03-21T03:04:55.623Z,9.64
2023-03-21T03:07:41.532Z,9.64
2023-03-21T03:10:23.280Z,9.64
2023-03-21T03:13:07.883Z,9.80
2023-03-21T03:15:53.087Z,9.92
2023-03-21T03:18:37.630Z,9.92
2023-03-21T03:21:31.663Z,9.96
2023-03-21T03:24:03.871Z,9.97
2023-03-21T03:27:02.069Z,9.97
2023-03-21T03:29:31.992Z,9.95
2023-03-21T03:32:25.522Z,9.85
2023-03-21T03:34:56.555Z,9.62
2023-03-21T03:37:31.503Z,9.74
2023-03-21T03:40:08.975Z,9.86
2023-03-21T03:42:40.496Z,9.83
2023-03-21T03:45:09.612Z,9.88
2023-03-21T03:47:56.042Z,9.88
2023-03-21T03:50:48.194Z,9.96
2023-03-21T03:53:23.316Z,9.87
2023-03-21T03:55:53.425Z,9.97
2023-03-21T03:58:24.781Z,9.95
2023-03-21T04:00:57.000Z,9.92
2023-03-21T04:03:24.544Z,9.94
2023-03-21T04:05:50.987Z,9.87
2023-03-21T04:08:17.584Z,9.88
2023-03-21T04:10:44.541Z,9.77
2023-03-21T04:13:11.365Z,9.84
2023-03-21T04:15:37.967Z,9.90
2023-03-21T04:18:04.559Z,10.02
2023-03-21T04:20:43.298Z,9.94
2023-03-21T04:23:09.923Z,9.92
2023-03-21T04:25:42.308Z,9.95
2023-03-21T04:28:14.183Z,9.90
2023-03-21T04:30:43.388Z,9.77
2023-03-21T04:33:15.743Z,9.77
2023-03-21T04:35:42.613Z,9.87
2023-03-21T04:38:09.073Z,9.95
2023-03-21T04:40:35.835Z,9.89
2023-03-21T04:43:02.459Z,9.83
2023-03-21T04:45:28.889Z,9.71
2023-03-21T04:47:56.642Z,9.84
2023-03-21T04:50:23.206Z,9.89
2023-03-21T04:52:49.673Z,9.93
2023-03-21T04:55:16.169Z,9.92
2023-03-21T04:57:42.620Z,9.92
2023-03-21T05:00:10.385Z,9.92
2023-03-21T05:02:38.465Z,9.88
2023-03-21T05:05:05.454Z,9.93
2023-03-21T05:07:32.758Z,9.81
2023-03-21T05:10:01.314Z,9.77
2023-03-21T05:12:28.818Z,9.75
2023-03-21T05:14:55.260Z,9.77
2023-03-21T05:17:24.877Z,9.81
2023-03-21T05:19:52.830Z,9.89
2023-03-21T05:22:20.476Z,9.94
2023-03-21T05:24:50.251Z,9.94
2023-03-21T05:27:34.127Z,9.94
2023-03-21T05:30:07.269Z,10.03
2023-03-21T05:32:34.308Z,10.21
2023-03-21T05:35:01.172Z,10.21
2023-03-21T05:37:28.648Z,10.18
2023-03-21T05:39:55.307Z,10.21
2023-03-21T05:42:22.422Z,10.30
2023-03-21T05:44:48.831Z,10.20
2023-03-21T05:47:17.549Z,10.18
2023-03-21T05:49:44.624Z,10.15
2023-03-21T05:52:11.194Z,10.17
2023-03-21T05:54:37.584Z,10.21
2023-03-21T05:57:05.187Z,10.20
2023-03-21T05:59:31.559Z,10.19
2023-03-21T06:01:57.930Z,10.19
2023-03-21T06:04:24.376Z,10.26
2023-03-21T06:06:52.124Z,10.23
2023-03-21T06:09:18.546Z,10.19
2023-03-21T06:11:48.525Z,10.25
2023-03-21T06:14:15.276Z,10.32
2023-03-21T06:16:42.237Z,10.46
2023-03-21T06:19:08.730Z,10.28
2023-03-21T06:21:35.427Z,10.36
2023-03-21T06:24:01.928Z,10.39
2023-03-21T06:26:28.310Z,10.39
2023-03-21T06:28:54.755Z,10.73
2023-03-21T06:31:22.741Z,10.63
2023-03-21T06:33:49.563Z,10.68
2023-03-21T06:36:16.002Z,10.72
2023-03-21T06:38:45.348Z,10.57
2023-03-21T06:41:11.773Z,10.52
2023-03-21T06:43:38.337Z,10.52
2023-03-21T06:46:05.617Z,10.62
2023-03-21T06:48:32.659Z,10.56
2023-03-21T06:50:59.055Z,10.63
2023-03-21T06:53:29.946Z,10.66
2023-03-21T06:55:57.021Z,10.63
2023-03-21T06:58:23.838Z,10.72
2023-03-21T07:00:50.323Z,10.91
2023-03-21T07:03:17.061Z,10.89
2023-03-21T07:05:43.443Z,11.15
2023-03-21T07:08:14.061Z,11.39
2023-03-21T07:10:43.800Z,11.53
2023-03-21T07:13:12.237Z,11.36
2023-03-21T07:15:39.277Z,11.58
2023-03-21T07:18:06.880Z,11.70
2023-03-21T07:20:33.704Z,11.70
2023-03-21T07:23:00.803Z,12.01
2023-03-21T07:25:28.719Z,11.67
2023-03-21T07:27:55.617Z,11.70
2023-03-21T07:30:22.124Z,11.67
2023-03-21T07:32:48.876Z,11.71
2023-03-21T07:35:17.393Z,11.63
2023-03-21T07:37:43.865Z,11.55
2023-03-21T07:40:13.160Z,11.78
2023-03-21T07:42:40.803Z,11.61
2023-03-21T07:45:09.060Z,11.43
2023-03-21T07:47:36.592Z,11.49
2023-03-21T07:50:04.484Z,11.69
2023-03-21T07:52:32.171Z,11.82
2023-03-21T07:54:58.600Z,11.87
2023-03-21T07:57:25.175Z,11.68
2023-03-21T07:59:51.633Z,12.22
2023-03-21T08:02:18.727Z,11.69
2023-03-21T08:04:45.732Z,11.80
2023-03-21T08:07:12.445Z,11.95
2023-03-21T08:09:38.956Z,11.88
2023-03-21T08:12:08.301Z,11.83
2023-03-21T08:14:36.759Z,12.02
2023-03-21T08:17:08.543Z,12.03
2023-03-21T08:19:35.605Z,12.06
2023-03-21T08:22:02.293Z,12.19
2023-03-21T08:24:29.147Z,12.31
2023-03-21T08:26:55.749Z,12.03
2023-03-21T08:29:22.875Z,12.31
2023-03-21T08:31:49.311Z,12.14
2023-03-21T08:34:17.855Z,12.14
2023-03-21T08:36:44.250Z,12.34
2023-03-21T08:39:10.675Z,11.99
2023-03-21T08:41:38.048Z,12.16
2023-03-21T08:44:06.268Z,12.38
2023-03-21T08:46:33.607Z,12.13
2023-03-21T08:49:00.298Z,12.16
2023-03-21T08:51:26.970Z,12.02
2023-03-21T08:53:53.350Z,12.40
2023-03-21T08:56:19.745Z,12.22
2023-03-21T08:58:47.336Z,12.24
2023-03-21T09:01:15.820Z,12.20
2023-03-21T09:03:43.385Z,12.38
2023-03-21T09:06:10.757Z,12.58
2023-03-21T09:08:38.318Z,12.59
2023-03-21T09:11:05.173Z,12.51
2023-03-21T09:13:31.553Z,12.70
2023-03-21T09:16:01.230Z,12.41
2023-03-21T09:18:38.996Z,12.31
2023-03-21T09:21:12.786Z,12.69
2023-03-21T09:23:39.800Z,12.46
2023-03-21T09:26:07.559Z,12.41
2023-03-21T09:28:34.953Z,12.13
2023-03-21T09:31:02.733Z,12.45
2023-03-21T09:33:29.597Z,12.38
2023-03-21T09:35:56.951Z,12.27
2023-03-21T09:38:30.313Z,12.31
2023-03-21T09:41:39.811Z,12.09
2023-03-21T09:44:32.233Z,12.29
2023-03-21T09:47:29.435Z,12.83
2023-03-21T09:50:13.094Z,12.46
2023-03-21T09:53:27.058Z,12.55
2023-03-21T09:55:54.365Z,12.97
2023-03-21T09:58:30.095Z,13.03
2023-03-21T10:01:07.471Z,12.65
2023-03-21T10:03:35.113Z,12.55
2023-03-21T10:06:05.717Z,12.31
2023-03-21T10:08:36.566Z,12.15
2023-03-21T10:11:25.550Z,12.12
2023-03-21T10:13:57.358Z,11.94
2023-03-21T10:16:30.909Z,12.02
2023-03-21T10:18:59.147Z,12.11
2023-03-21T10:21:56.514Z,12.05
2023-03-21T10:24:27.514Z,12.16
2023-03-21T10:26:55.248Z,12.27
2023-03-21T10:29:26.104Z,12.24
2023-03-21T10:31:53.873Z,12.31
2023-03-21T10:34:43.673Z,12.20
2023-03-21T10:37:12.037Z,12.20
2023-03-21T10:39:41.105Z,12.07
2023-03-21T10:42:18.403Z,11.91
2023-03-21T10:44:49.147Z,11.85
2023-03-21T10:47:21.739Z,11.85
2023-03-21T10:52:37.259Z,12.03
2023-03-21T10:55:40.932Z,12.03
2023-03-21T10:58:10.917Z,11.93
2023-03-21T11:00:41.314Z,11.94
2023-03-21T11:03:21.412Z,12.13
2023-03-21T11:05:48.950Z,12.39
2023-03-21T11:08:18.571Z,12.55
2023-03-21T11:11:06.948Z,12.51
2023-03-21T11:13:43.800Z,12.69
2023-03-21T11:16:11.901Z,12.80
2023-03-21T11:18:44.111Z,12.84
2023-03-21T11:21:13.261Z,12.99
2023-03-21T11:23:45.520Z,13.00
2023-03-21T11:26:18.480Z,12.92
2023-03-21T11:28:46.632Z,13.04
2023-03-21T11:31:13.398Z,12.97
2023-03-21T11:33:45.939Z,13.02
2023-03-21T11:36:39.959Z,13.00
2023-03-21T11:39:27.848Z,13.09
2023-03-21T11:41:54.322Z,13.44
2023-03-21T11:44:40.912Z,13.34
2023-03-21T11:47:10.341Z,13.32
2023-03-21T11:49:37.289Z,13.38
2023-03-21T11:52:17.848Z,13.44
2023-03-21T11:55:18.836Z,13.36
2023-03-21T11:58:05.311Z,13.19
2023-03-21T12:00:59.623Z,13.22
2023-03-21T12:03:48.357Z,13.17
2023-03-21T12:06:37.816Z,13.29
2023-03-21T12:09:44.827Z,13.21
2023-03-21T12:12:39.688Z,13.40
2023-03-21T12:15:18.860Z,13.88
2023-03-21T12:18:14.544Z,13.50
2023-03-21T12:20:58.577Z,13.39
2023-03-21T12:23:42.966Z,13.42
2023-03-21T12:26:32.532Z,13.44
2023-03-21T12:29:29.996Z,13.52
2023-03-21T12:32:10.964Z,13.64
2023-03-21T12:35:05.205Z,13.54
2023-03-21T12:38:01.813Z,13.45
2023-03-21T12:40:49.265Z,13.36
2023-03-21T12:43:34.026Z,13.54
2023-03-21T12:46:05.767Z,13.18
2023-03-21T12:48:47.749Z,13.26
2023-03-21T12:51:18.046Z,13.23
2023-03-21T12:53:59.781Z,13.31
2023-03-21T12:56:52.372Z,13.41
2023-03-21T12:59:36.755Z,13.17
2023-03-21T13:02:52.659Z,13.23
2023-03-21T13:05:27.712Z,13.19
2023-03-21T13:08:01.192Z,13.15
2023-03-21T13:10:27.741Z,13.26
2023-03-21T13:13:22.371Z,13.25
2023-03-21T13:16:00.339Z,13.29
2023-03-21T13:18:41.313Z,13.32
2023-03-21T13:21:17.879Z,13.30
2023-03-21T13:24:00.738Z,13.23
2023-03-21T13:26:40.580Z,13.26
2023-03-21T13:29:26.695Z,13.32
2023-03-21T13:31:57.562Z,13.22
2023-03-21T13:34:25.347Z,13.22
2023-03-21T13:36:52.771Z,13.24
2023-03-21T13:39:28.560Z,13.18
2023-03-21T13:42:02.345Z,13.12
2023-03-21T13:44:39.728Z,13.05
2023-03-21T13:47:39.375Z,13.11
2023-03-21T13:50:17.739Z,13.14
2023-03-21T13:53:11.591Z,12.99
2023-03-21T13:55:42.571Z,13.07
2023-03-21T13:58:37.138Z,13.01
2023-03-21T14:01:03.861Z,13.07
2023-03-21T14:03:34.034Z,13.10
2023-03-21T14:06:00.812Z,12.98
2023-03-21T14:08:37.227Z,13.12
2023-03-21T14:11:08.204Z,12.84
2023-03-21T14:13:38.050Z,13.10
2023-03-21T14:16:15.430Z,13.36
2023-03-21T14:18:55.205Z,13.38
2023-03-21T14:21:31.624Z,13.24
2023-03-21T14:24:06.365Z,13.05
2023-03-21T14:26:36.052Z,13.16
2023-03-21T14:29:23.023Z,13.35
2023-03-21T14:31:52.687Z,13.38
2023-03-21T14:34:21.988Z,13.49
2023-03-21T14:36:57.175Z,13.48
2023-03-21T14:39:28.925Z,13.47
2023-03-21T14:42:01.028Z,13.54
2023-03-21T14:44:38.062Z,13.55
2023-03-21T14:47:40.126Z,13.30
2023-03-21T14:50:10.752Z,13.40
2023-03-21T14:52:38.636Z,13.40
2023-03-21T14:55:14.159Z,13.19
2023-03-21T14:57:40.641Z,13.02
2023-03-21T15:00:15.914Z,13.15
2023-03-21T15:02:45.964Z,13.23
2023-03-21T15:05:18.169Z,12.83
2023-03-21T15:07:56.773Z,12.75
2023-03-21T15:10:25.328Z,12.97
2023-03-21T15:12:58.854Z,13.32
2023-03-21T15:15:27.675Z,13.38
2023-03-21T15:17:56.861Z,13.61
2023-03-21T15:20:28.155Z,13.57
2023-03-21T15:22:58.036Z,13.49
2023-03-21T15:25:33.747Z,13.47
2023-03-21T15:28:00.433Z,13.47
2023-03-21T15:30:30.282Z,13.53
2023-03-21T15:32:58.065Z,13.59
2023-03-21T15:35:35.010Z,13.88
2023-03-21T15:38:01.638Z,13.68
2023-03-21T15:40:30.645Z,13.60
2023-03-21T15:43:16.160Z,13.57
2023-03-21T15:45:51.324Z,13.53
2023-03-21T15:48:24.881Z,13.72
2023-03-21T15:51:06.719Z,13.57
2023-03-21T15:53:36.081Z,13.48
2023-03-21T15:56:06.053Z,13.36
2023-03-21T15:58:41.455Z,13.43
2023-03-21T16:01:14.933Z,13.37
2023-03-21T16:04:13.244Z,13.49
2023-03-21T16:07:02.148Z,13.61
2023-03-21T16:09:39.596Z,13.56
2023-03-21T16:12:11.030Z,13.41
2023-03-21T16:14:37.835Z,13.50
2023-03-21T16:17:27.572Z,13.52
2023-03-21T16:19:55.279Z,13.47
2023-03-21T16:22:22.203Z,13.48
2023-03-21T16:24:48.888Z,13.43
2023-03-21T16:27:18.759Z,13.57
2023-03-21T16:29:45.300Z,13.36
2023-03-21T16:32:17.891Z,13.34
2023-03-21T16:34:44.659Z,13.32
2023-03-21T16:37:11.816Z,13.36
2023-03-21T16:39:38.634Z,13.28
2023-03-21T16:42:05.727Z,13.12
2023-03-21T16:44:33.737Z,13.12
2023-03-21T16:47:02.400Z,13.10
2023-03-21T16:49:28.979Z,13.03
2023-03-21T16:51:56.981Z,13.06
2023-03-21T16:54:23.972Z,13.09
2023-03-21T16:56:52.986Z,13.08
2023-03-21T16:59:19.972Z,13.09
2023-03-21T17:01:48.109Z,13.08
2023-03-21T17:04:16.790Z,12.91
2023-03-21T17:06:49.303Z,13.12
2023-03-21T17:09:17.717Z,12.80
2023-03-21T17:11:44.933Z,12.77
2023-03-21T17:14:12.718Z,12.74
2023-03-21T17:16:43.265Z,12.71
2023-03-21T17:19:13.981Z,12.84
2023-03-21T17:21:40.865Z,12.81
2023-03-21T17:24:07.556Z,12.69
2023-03-21T17:26:33.985Z,12.67
2023-03-21T17:29:00.622Z,12.67
2023-03-21T17:31:31.607Z,12.75
2023-03-21T17:33:58.149Z,12.61
2023-03-21T17:36:33.292Z,12.71
2023-03-21T17:38:59.990Z,12.75
2023-03-21T17:41:27.381Z,12.73
2023-03-21T17:43:55.634Z,12.80
2023-03-21T17:46:24.836Z,12.61
2023-03-21T17:48:51.560Z,12.60
2023-03-21T17:51:18.195Z,12.49
2023-03-21T17:53:50.656Z,12.58
2023-03-21T17:56:31.671Z,12.32
2023-03-21T17:59:03.440Z,12.13
2023-03-21T18:01:32.975Z,11.86
2023-03-21T18:04:02.806Z,11.75
2023-03-21T18:06:29.384Z,11.69
2023-03-21T18:08:55.876Z,12.04
2023-03-21T18:11:23.955Z,12.19
2023-03-21T18:13:50.940Z,11.85
2023-03-21T18:16:21.335Z,11.67
2023-03-21T18:18:48.547Z,11.57
2023-03-21T18:21:18.976Z,11.40
2023-03-21T18:23:47.479Z,11.32
2023-03-21T18:26:17.794Z,11.29
2023-03-21T18:28:44.803Z,11.11
2023-03-21T18:31:19.563Z,10.76
2023-03-21T18:33:48.424Z,10.57
2023-03-21T18:36:24.691Z,10.43
2023-03-21T18:38:51.890Z,10.51
2023-03-21T18:41:22.753Z,10.62
2023-03-21T18:44:12.892Z,10.30
2023-03-21T18:46:36.723Z,10.57
2023-03-21T18:49:33.497Z,10.86
2023-03-21T18:51:50.650Z,11.02
2023-03-21T18:54:17.130Z,11.04
2023-03-21T18:59:34.425Z,10.74
2023-03-21T19:02:02.044Z,10.78
2023-03-21T19:04:30.516Z,10.58
2023-03-21T19:06:58.431Z,10.48
2023-03-21T19:09:29.384Z,10.34
2023-03-21T19:11:58.153Z,10.46
2023-03-21T19:14:24.619Z,10.21
2023-03-21T19:19:38.598Z,10.01
2023-03-21T19:22:05.165Z,10.01
2023-03-21T19:24:31.512Z,9.69
2023-03-21T19:26:57.952Z,9.70
2023-03-21T19:29:25.142Z,10.11
2023-03-21T19:31:52.460Z,10.06
2023-03-21T19:34:19.411Z,10.25
2023-03-21T19:36:51.541Z,10.22
2023-03-21T19:39:21.829Z,9.88
2023-03-21T19:41:48.630Z,9.80
2023-03-21T19:44:15.386Z,9.66
2023-03-21T19:46:42.047Z,9.62
2023-03-21T19:49:08.535Z,9.24
2023-03-21T19:51:35.685Z,9.13
2023-03-21T19:54:05.339Z,9.13
2023-03-21T19:56:32.131Z,8.95
2023-03-21T19:58:59.267Z,8.80
2023-03-21T20:01:26.221Z,8.78
2023-03-21T20:03:52.817Z,8.56
2023-03-21T20:06:19.901Z,8.47
2023-03-21T20:11:33.378Z,8.37
2023-03-21T20:14:01.949Z,8.32
2023-03-21T20:16:34.280Z,8.12
2023-03-21T20:19:01.302Z,8.15
2023-03-21T20:21:34.750Z,8.09
2023-03-21T20:24:07.005Z,7.92
2023-03-21T20:26:34.137Z,7.82
2023-03-21T20:29:37.269Z,7.70
2023-03-21T20:31:47.396Z,7.69
2023-03-21T20:34:13.737Z,7.62
2023-03-21T20:36:42.770Z,7.69
2023-03-21T20:39:09.713Z,7.63
2023-03-21T20:41:36.434Z,7.59
2023-03-21T20:46:50.060Z,7.58
2023-03-21T20:49:16.744Z,7.52
2023-03-21T20:54:30.030Z,7.49
2023-03-21T20:56:57.202Z,7.51
2023-03-21T20:59:27.714Z,7.32
2023-03-21T21:01:56.125Z,7.25
2023-03-21T21:04:42.769Z,7.33
2023-03-21T21:07:15.666Z,7.16
2023-03-21T21:09:43.608Z,7.20
2023-03-21T21:12:11.476Z,7.18
2023-03-21T21:14:38.859Z,6.97
2023-03-21T21:17:23.148Z,6.94
2023-03-21T21:19:52.304Z,6.92
2023-03-21T21:22:18.990Z,7.10
2023-03-21T21:24:45.332Z,7.15
2023-03-21T21:27:11.993Z,7.29
2023-03-21T21:29:38.674Z,7.41
2023-03-21T21:32:05.362Z,7.40
2023-03-21T21:34:32.058Z,7.33
2023-03-21T21:36:58.775Z,7.50
2023-03-21T21:39:26.543Z,7.48
2023-03-21T21:41:53.627Z,7.57
2023-03-21T21:44:20.253Z,7.57
2023-03-21T21:46:47.111Z,7.65
2023-03-21T21:49:13.626Z,7.70
2023-03-21T21:51:41.786Z,7.84
2023-03-21T21:54:08.396Z,7.88
2023-03-21T21:56:36.910Z,7.84
2023-03-21T21:59:04.350Z,7.80
2023-03-21T22:01:34.524Z,7.84
2023-03-21T22:04:07.940Z,7.99
2023-03-21T22:06:34.741Z,7.91
2023-03-21T22:09:03.778Z,8.09
2023-03-21T22:11:30.418Z,7.91
2023-03-21T22:13:56.925Z,7.82
2023-03-21T22:16:23.384Z,8.07
2023-03-21T22:18:49.888Z,7.99
2023-03-21T22:21:16.460Z,7.86
2023-03-21T22:23:42.873Z,7.83
2023-03-21T22:26:10.115Z,7.73
2023-03-21T22:28:39.698Z,7.73
2023-03-21T22:31:09.531Z,7.74
2023-03-21T22:33:35.946Z,7.75
2023-03-21T22:36:02.983Z,7.77
2023-03-21T22:38:29.401Z,7.75
2023-03-21T22:40:58.867Z,7.70
2023-03-21T22:43:25.800Z,7.81
2023-03-21T22:45:52.631Z,7.89
2023-03-21T22:48:19.663Z,7.94
2023-03-21T22:50:46.179Z,7.98
2023-03-21T22:53:12.862Z,7.96
2023-03-21T22:55:39.550Z,7.90
2023-03-21T22:58:06.407Z,7.87
2023-03-21T23:00:33.507Z,7.88
2023-03-21T23:03:00.326Z,7.84
2023-03-21T23:05:26.724Z,7.87
2023-03-21T23:07:53.512Z,7.96
2023-03-21T23:10:19.939Z,8.09
2023-03-21T23:12:46.439Z,8.01
2023-03-21T23:15:12.793Z,8.07
2023-03-21T23:17:39.255Z,7.99
2023-03-21T23:20:07.769Z,7.93
2023-03-21T23:22:35.802Z,7.82
2023-03-21T23:25:02.746Z,7.99
2023-03-21T23:27:29.217Z,8.03
2023-03-21T23:29:56.554Z,7.99
2023-03-21T23:32:23.989Z,7.98
2023-03-21T23:34:50.610Z,7.98
2023-03-21T23:37:17.086Z,7.91
2023-03-21T23:39:45.204Z,7.82
2023-03-21T23:42:11.775Z,7.85
2023-03-21T23:44:38.192Z,7.77
2023-03-21T23:47:04.684Z,7.83
2023-03-21T23:49:33.545Z,7.88
2023-03-21T23:51:59.974Z,7.86
2023-03-21T23:54:26.528Z,8.05
2023-03-21T23:56:52.937Z,8.07
2023-03-21T23:59:19.288Z,8.02
